OIKK

Details ICAO OIKK (KER)
Name KERMAN
Region Iran
Timezone Asia/Tehran (UTC+4.5)
Plans Departing 21
Arriving 23
Stats Elevation 5,741 ft / 1,750 m (AMSL)
Location 30.268055° 56.955332°
Runways 2
Magnetic Variation 2.937° E
Sunrise 2018-05-23 01:15:36 UTC / 2018-05-23 05:45:36 Local
Sunset 2018-05-23 15:05:05 UTC / 2018-05-23 19:35:05 Local
Advertisement - Login to hide

Runways

ID Width Length Bearing (true) Bearing (mag) Surface Threshold Offset Overrun Length
05 148 ft / 45 m 6,658 ft / 2,029 m 53.18° 50.24° Asphalt 0 ft / 0 m 0 ft / 0 m
16 148 ft / 45 m 12,653 ft / 3,857 m 158.43° 155.49° Asphalt 0 ft / 0 m 344 ft / 105 m
23 148 ft / 45 m 6,658 ft / 2,029 m 233.19° 230.25° Asphalt 0 ft / 0 m 0 ft / 0 m
34 148 ft / 45 m 12,653 ft / 3,857 m 338.44° 335.50° Asphalt 0 ft / 0 m 488 ft / 149 m

Map

Weather


0- 5 10 15 20 25 30 35+ Temperature / ° C

Clouds and Precipitation
Forecast for 2018-05-23 18:00 UTC. Updated 2 hours ago

Ground ~20,000 ft ~40,000 ft Winds

METAR

OIKK 231900Z 21008KT 9999 SCT100 BKN200 17/04 Q1024 A3025

TAF

TAF OIKK 231730Z 2318/2424 23005MPS 7000 FEW040CB SCT045 TEMPO 2404/2424 14007G12MPS 3000 TSRA SA SCT035CB SCT040 BKN100

Frequencies

Recorded 127.25 MHz ATIS
Tower 122.50 MHz TWR
Tower 121.90 MHz TWR
Warning: Do not use this data for real-world aviation or navigation. No guarantee of current accuracy is given.